sensor_id;sensor_type;location;lat;lon;timestamp;temperature;humidity
43894;DHT22;29556;50.846;4.442;2022-08-02T00:00:14;20.20;73.00
43894;DHT22;29556;50.846;4.442;2022-08-02T00:02:44;20.20;73.10
43894;DHT22;29556;50.846;4.442;2022-08-02T00:05:11;20.20;73.10
43894;DHT22;29556;50.846;4.442;2022-08-02T00:07:37;20.20;73.20
43894;DHT22;29556;50.846;4.442;2022-08-02T00:10:05;20.20;73.40
43894;DHT22;29556;50.846;4.442;2022-08-02T00:12:31;20.20;73.20
43894;DHT22;29556;50.846;4.442;2022-08-02T00:14:57;20.10;73.30
43894;DHT22;29556;50.846;4.442;2022-08-02T00:17:23;20.10;73.40
43894;DHT22;29556;50.846;4.442;2022-08-02T00:19:49;20.10;73.40
43894;DHT22;29556;50.846;4.442;2022-08-02T00:22:17;20.10;73.50
43894;DHT22;29556;50.846;4.442;2022-08-02T00:24:42;20.10;73.60
43894;DHT22;29556;50.846;4.442;2022-08-02T00:27:08;20.10;73.70
43894;DHT22;29556;50.846;4.442;2022-08-02T00:29:35;20.10;73.90
43894;DHT22;29556;50.846;4.442;2022-08-02T00:32:01;20.00;73.80
43894;DHT22;29556;50.846;4.442;2022-08-02T00:34:28;20.10;74.10
43894;DHT22;29556;50.846;4.442;2022-08-02T00:36:53;20.00;74.00
43894;DHT22;29556;50.846;4.442;2022-08-02T00:39:19;20.00;74.10
43894;DHT22;29556;50.846;4.442;2022-08-02T00:41:47;20.00;74.20
43894;DHT22;29556;50.846;4.442;2022-08-02T00:44:16;20.00;74.10
43894;DHT22;29556;50.846;4.442;2022-08-02T00:46:43;20.00;74.30
43894;DHT22;29556;50.846;4.442;2022-08-02T00:49:10;20.10;74.40
43894;DHT22;29556;50.846;4.442;2022-08-02T00:51:37;20.10;74.40
43894;DHT22;29556;50.846;4.442;2022-08-02T00:54:06;20.10;74.40
43894;DHT22;29556;50.846;4.442;2022-08-02T00:56:33;20.00;74.20
43894;DHT22;29556;50.846;4.442;2022-08-02T00:58:59;20.00;74.20
43894;DHT22;29556;50.846;4.442;2022-08-02T01:01:25;20.10;74.50
43894;DHT22;29556;50.846;4.442;2022-08-02T01:04:07;20.10;74.50
43894;DHT22;29556;50.846;4.442;2022-08-02T01:06:34;20.10;74.70
43894;DHT22;29556;50.846;4.442;2022-08-02T01:09:01;20.10;74.80
43894;DHT22;29556;50.846;4.442;2022-08-02T01:11:28;20.10;74.80
43894;DHT22;29556;50.846;4.442;2022-08-02T01:14:10;20.10;74.70
43894;DHT22;29556;50.846;4.442;2022-08-02T01:17:03;20.10;74.80
43894;DHT22;29556;50.846;4.442;2022-08-02T01:22:30;20.10;74.80
43894;DHT22;29556;50.846;4.442;2022-08-02T01:25:43;20.10;74.70
43894;DHT22;29556;50.846;4.442;2022-08-02T01:31:20;20.20;74.90
43894;DHT22;29556;50.846;4.442;2022-08-02T01:34:17;20.20;75.00
43894;DHT22;29556;50.846;4.442;2022-08-02T01:36:47;20.20;75.00
43894;DHT22;29556;50.846;4.442;2022-08-02T01:39:19;20.20;75.20
43894;DHT22;29556;50.846;4.442;2022-08-02T01:41:46;20.20;75.30
43894;DHT22;29556;50.846;4.442;2022-08-02T01:44:14;20.20;75.20
43894;DHT22;29556;50.846;4.442;2022-08-02T01:46:41;20.20;75.10
43894;DHT22;29556;50.846;4.442;2022-08-02T01:49:13;20.20;75.00
43894;DHT22;29556;50.846;4.442;2022-08-02T01:51:40;20.20;75.00
43894;DHT22;29556;50.846;4.442;2022-08-02T01:54:29;20.20;74.80
43894;DHT22;29556;50.846;4.442;2022-08-02T01:56:56;20.20;75.00
43894;DHT22;29556;50.846;4.442;2022-08-02T01:59:25;20.30;75.10
43894;DHT22;29556;50.846;4.442;2022-08-02T02:01:52;20.20;75.00
43894;DHT22;29556;50.846;4.442;2022-08-02T02:04:21;20.20;75.00
43894;DHT22;29556;50.846;4.442;2022-08-02T02:06:48;20.20;74.90
43894;DHT22;29556;50.846;4.442;2022-08-02T02:09:14;20.20;74.70
43894;DHT22;29556;50.846;4.442;2022-08-02T02:11:45;20.20;74.80
43894;DHT22;29556;50.846;4.442;2022-08-02T02:14:11;20.20;74.90
43894;DHT22;29556;50.846;4.442;2022-08-02T02:16:40;20.20;75.00
43894;DHT22;29556;50.846;4.442;2022-08-02T02:19:08;20.20;75.00
43894;DHT22;29556;50.846;4.442;2022-08-02T02:21:33;20.10;75.20
43894;DHT22;29556;50.846;4.442;2022-08-02T02:24:00;20.20;75.10
43894;DHT22;29556;50.846;4.442;2022-08-02T02:26:26;20.20;75.20
43894;DHT22;29556;50.846;4.442;2022-08-02T02:29:00;20.10;75.10
43894;DHT22;29556;50.846;4.442;2022-08-02T02:31:33;20.10;75.00
43894;DHT22;29556;50.846;4.442;2022-08-02T02:34:16;20.10;75.00
43894;DHT22;29556;50.846;4.442;2022-08-02T02:36:50;20.10;75.10
43894;DHT22;29556;50.846;4.442;2022-08-02T02:39:19;20.10;75.00
43894;DHT22;29556;50.846;4.442;2022-08-02T02:41:46;20.20;75.00
43894;DHT22;29556;50.846;4.442;2022-08-02T02:44:16;20.10;75.00
43894;DHT22;29556;50.846;4.442;2022-08-02T02:46:44;20.10;74.90
43894;DHT22;29556;50.846;4.442;2022-08-02T02:49:11;20.10;74.80
43894;DHT22;29556;50.846;4.442;2022-08-02T02:51:41;20.20;74.80
43894;DHT22;29556;50.846;4.442;2022-08-02T02:54:08;20.10;74.90
43894;DHT22;29556;50.846;4.442;2022-08-02T02:56:36;20.10;75.10
43894;DHT22;29556;50.846;4.442;2022-08-02T02:59:07;20.10;75.10
43894;DHT22;29556;50.846;4.442;2022-08-02T03:01:33;20.10;75.30
43894;DHT22;29556;50.846;4.442;2022-08-02T03:04:02;20.10;75.30
43894;DHT22;29556;50.846;4.442;2022-08-02T03:06:29;20.00;75.50
43894;DHT22;29556;50.846;4.442;2022-08-02T03:08:55;20.00;75.50
43894;DHT22;29556;50.846;4.442;2022-08-02T03:11:22;20.00;75.60
43894;DHT22;29556;50.846;4.442;2022-08-02T03:13:48;20.00;75.70
43894;DHT22;29556;50.846;4.442;2022-08-02T03:16:14;20.00;75.90
43894;DHT22;29556;50.846;4.442;2022-08-02T03:18:42;20.00;75.90
43894;DHT22;29556;50.846;4.442;2022-08-02T03:21:12;20.10;76.20
43894;DHT22;29556;50.846;4.442;2022-08-02T03:23:40;20.10;76.30
43894;DHT22;29556;50.846;4.442;2022-08-02T03:26:07;20.10;76.20
43894;DHT22;29556;50.846;4.442;2022-08-02T03:28:33;20.10;76.20
43894;DHT22;29556;50.846;4.442;2022-08-02T03:30:59;20.10;76.40
43894;DHT22;29556;50.846;4.442;2022-08-02T03:33:26;20.10;76.40
43894;DHT22;29556;50.846;4.442;2022-08-02T03:35:54;20.20;76.40
43894;DHT22;29556;50.846;4.442;2022-08-02T03:38:22;20.20;76.50
43894;DHT22;29556;50.846;4.442;2022-08-02T03:40:49;20.10;76.40
43894;DHT22;29556;50.846;4.442;2022-08-02T03:43:15;20.10;76.40
43894;DHT22;29556;50.846;4.442;2022-08-02T03:45:43;20.20;76.50
43894;DHT22;29556;50.846;4.442;2022-08-02T03:48:10;20.20;76.50
43894;DHT22;29556;50.846;4.442;2022-08-02T03:50:38;20.20;76.40
43894;DHT22;29556;50.846;4.442;2022-08-02T03:53:06;20.20;76.40
43894;DHT22;29556;50.846;4.442;2022-08-02T03:55:33;20.30;76.80
43894;DHT22;29556;50.846;4.442;2022-08-02T03:57:59;20.30;76.50
43894;DHT22;29556;50.846;4.442;2022-08-02T04:00:26;20.20;76.70
43894;DHT22;29556;50.846;4.442;2022-08-02T04:02:52;20.30;76.80
43894;DHT22;29556;50.846;4.442;2022-08-02T04:05:18;20.30;76.80
43894;DHT22;29556;50.846;4.442;2022-08-02T04:07:45;20.30;76.70
43894;DHT22;29556;50.846;4.442;2022-08-02T04:10:12;20.10;76.40
43894;DHT22;29556;50.846;4.442;2022-08-02T04:12:41;20.30;76.70
43894;DHT22;29556;50.846;4.442;2022-08-02T04:15:08;20.30;76.80
43894;DHT22;29556;50.846;4.442;2022-08-02T04:17:39;20.30;76.70
43894;DHT22;29556;50.846;4.442;2022-08-02T04:20:10;20.30;76.70
43894;DHT22;29556;50.846;4.442;2022-08-02T04:22:43;20.20;76.50
43894;DHT22;29556;50.846;4.442;2022-08-02T04:25:10;20.20;76.70
43894;DHT22;29556;50.846;4.442;2022-08-02T04:27:37;20.20;76.80
43894;DHT22;29556;50.846;4.442;2022-08-02T04:30:05;20.30;77.00
43894;DHT22;29556;50.846;4.442;2022-08-02T04:32:32;20.30;77.00
43894;DHT22;29556;50.846;4.442;2022-08-02T04:35:01;20.40;76.80
43894;DHT22;29556;50.846;4.442;2022-08-02T04:37:27;20.40;76.90
43894;DHT22;29556;50.846;4.442;2022-08-02T04:39:52;20.30;76.80
43894;DHT22;29556;50.846;4.442;2022-08-02T04:42:23;20.40;77.00
43894;DHT22;29556;50.846;4.442;2022-08-02T04:44:49;20.40;76.90
43894;DHT22;29556;50.846;4.442;2022-08-02T04:47:15;20.40;77.00
43894;DHT22;29556;50.846;4.442;2022-08-02T04:49:41;20.40;77.00
43894;DHT22;29556;50.846;4.442;2022-08-02T04:52:07;20.40;77.20
43894;DHT22;29556;50.846;4.442;2022-08-02T04:54:33;20.30;77.20
43894;DHT22;29556;50.846;4.442;2022-08-02T04:56:58;20.30;77.30
43894;DHT22;29556;50.846;4.442;2022-08-02T04:59:24;20.30;77.20
43894;DHT22;29556;50.846;4.442;2022-08-02T05:01:50;20.30;77.40
43894;DHT22;29556;50.846;4.442;2022-08-02T05:04:15;20.20;77.30
43894;DHT22;29556;50.846;4.442;2022-08-02T05:06:41;20.20;77.40
43894;DHT22;29556;50.846;4.442;2022-08-02T05:09:06;20.20;77.30
43894;DHT22;29556;50.846;4.442;2022-08-02T05:11:32;20.20;77.30
43894;DHT22;29556;50.846;4.442;2022-08-02T05:13:58;20.20;77.50
43894;DHT22;29556;50.846;4.442;2022-08-02T05:16:23;20.20;77.60
43894;DHT22;29556;50.846;4.442;2022-08-02T05:18:50;20.20;77.60
43894;DHT22;29556;50.846;4.442;2022-08-02T05:21:16;20.10;77.70
43894;DHT22;29556;50.846;4.442;2022-08-02T05:23:42;20.20;77.80
43894;DHT22;29556;50.846;4.442;2022-08-02T05:26:10;20.10;77.80
43894;DHT22;29556;50.846;4.442;2022-08-02T05:28:36;20.10;77.90
43894;DHT22;29556;50.846;4.442;2022-08-02T05:31:06;20.20;77.80
43894;DHT22;29556;50.846;4.442;2022-08-02T05:33:31;20.20;77.70
43894;DHT22;29556;50.846;4.442;2022-08-02T05:35:57;20.20;77.90
43894;DHT22;29556;50.846;4.442;2022-08-02T05:38:23;20.20;77.80
43894;DHT22;29556;50.846;4.442;2022-08-02T05:40:50;20.20;77.90
43894;DHT22;29556;50.846;4.442;2022-08-02T05:43:15;20.10;77.80
43894;DHT22;29556;50.846;4.442;2022-08-02T05:45:41;20.20;78.10
43894;DHT22;29556;50.846;4.442;2022-08-02T05:48:07;20.20;78.10
43894;DHT22;29556;50.846;4.442;2022-08-02T05:50:38;20.10;77.90
43894;DHT22;29556;50.846;4.442;2022-08-02T05:53:23;20.00;77.90
43894;DHT22;29556;50.846;4.442;2022-08-02T05:58:42;20.10;78.10
43894;DHT22;29556;50.846;4.442;2022-08-02T06:01:13;20.20;78.20
43894;DHT22;29556;50.846;4.442;2022-08-02T06:03:51;20.10;78.20
43894;DHT22;29556;50.846;4.442;2022-08-02T06:06:20;20.20;78.20
43894;DHT22;29556;50.846;4.442;2022-08-02T06:08:50;20.20;78.20
43894;DHT22;29556;50.846;4.442;2022-08-02T06:11:22;20.20;78.20
43894;DHT22;29556;50.846;4.442;2022-08-02T06:13:49;20.20;78.10
43894;DHT22;29556;50.846;4.442;2022-08-02T06:16:15;20.20;77.90
43894;DHT22;29556;50.846;4.442;2022-08-02T06:18:42;20.20;78.20
43894;DHT22;29556;50.846;4.442;2022-08-02T06:21:08;20.30;78.20
43894;DHT22;29556;50.846;4.442;2022-08-02T06:23:40;20.20;77.30
43894;DHT22;29556;50.846;4.442;2022-08-02T06:26:08;20.20;77.60
43894;DHT22;29556;50.846;4.442;2022-08-02T06:28:37;20.20;77.50
43894;DHT22;29556;50.846;4.442;2022-08-02T06:31:05;20.30;77.40
43894;DHT22;29556;50.846;4.442;2022-08-02T06:33:31;20.30;77.30
43894;DHT22;29556;50.846;4.442;2022-08-02T06:38:31;20.40;76.80
43894;DHT22;29556;50.846;4.442;2022-08-02T06:41:02;20.50;76.60
43894;DHT22;29556;50.846;4.442;2022-08-02T06:43:44;20.50;75.70
43894;DHT22;29556;50.846;4.442;2022-08-02T06:46:11;20.50;75.50
43894;DHT22;29556;50.846;4.442;2022-08-02T06:48:37;20.50;75.10
43894;DHT22;29556;50.846;4.442;2022-08-02T06:51:03;20.50;74.70
43894;DHT22;29556;50.846;4.442;2022-08-02T06:53:29;20.60;74.60
43894;DHT22;29556;50.846;4.442;2022-08-02T06:55:56;20.70;74.20
43894;DHT22;29556;50.846;4.442;2022-08-02T06:58:21;20.60;73.00
43894;DHT22;29556;50.846;4.442;2022-08-02T07:00:47;20.70;72.70
43894;DHT22;29556;50.846;4.442;2022-08-02T07:03:13;20.70;72.40
43894;DHT22;29556;50.846;4.442;2022-08-02T07:05:39;20.80;73.00
43894;DHT22;29556;50.846;4.442;2022-08-02T07:08:06;20.80;71.80
43894;DHT22;29556;50.846;4.442;2022-08-02T07:10:32;20.70;71.00
43894;DHT22;29556;50.846;4.442;2022-08-02T07:12:58;20.80;71.20
43894;DHT22;29556;50.846;4.442;2022-08-02T07:15:23;20.80;70.30
43894;DHT22;29556;50.846;4.442;2022-08-02T07:17:49;20.80;70.80
43894;DHT22;29556;50.846;4.442;2022-08-02T07:20:15;20.80;70.60
43894;DHT22;29556;50.846;4.442;2022-08-02T07:22:40;20.80;70.50
43894;DHT22;29556;50.846;4.442;2022-08-02T07:25:07;20.80;69.40
43894;DHT22;29556;50.846;4.442;2022-08-02T07:27:33;20.90;70.30
43894;DHT22;29556;50.846;4.442;2022-08-02T07:29:59;20.90;70.50
43894;DHT22;29556;50.846;4.442;2022-08-02T07:32:27;20.90;70.40
43894;DHT22;29556;50.846;4.442;2022-08-02T07:34:55;21.00;70.50
43894;DHT22;29556;50.846;4.442;2022-08-02T07:37:22;21.10;70.60
43894;DHT22;29556;50.846;4.442;2022-08-02T07:39:49;21.10;70.60
43894;DHT22;29556;50.846;4.442;2022-08-02T07:42:15;21.10;70.00
43894;DHT22;29556;50.846;4.442;2022-08-02T07:44:40;21.20;70.60
43894;DHT22;29556;50.846;4.442;2022-08-02T07:47:06;21.20;70.70
43894;DHT22;29556;50.846;4.442;2022-08-02T07:49:32;21.30;70.40
43894;DHT22;29556;50.846;4.442;2022-08-02T07:51:57;21.30;69.80
43894;DHT22;29556;50.846;4.442;2022-08-02T07:54:23;21.30;69.60
43894;DHT22;29556;50.846;4.442;2022-08-02T07:56:49;21.30;70.00
43894;DHT22;29556;50.846;4.442;2022-08-02T07:59:17;21.30;68.90
43894;DHT22;29556;50.846;4.442;2022-08-02T08:01:43;21.40;69.40
43894;DHT22;29556;50.846;4.442;2022-08-02T08:04:08;21.40;69.20
43894;DHT22;29556;50.846;4.442;2022-08-02T08:06:34;21.40;68.60
43894;DHT22;29556;50.846;4.442;2022-08-02T08:09:00;21.40;67.30
43894;DHT22;29556;50.846;4.442;2022-08-02T08:11:25;21.50;68.60
43894;DHT22;29556;50.846;4.442;2022-08-02T08:13:51;21.50;68.60
43894;DHT22;29556;50.846;4.442;2022-08-02T08:16:17;21.60;68.10
43894;DHT22;29556;50.846;4.442;2022-08-02T08:18:43;21.70;68.30
43894;DHT22;29556;50.846;4.442;2022-08-02T08:21:08;21.80;68.10
43894;DHT22;29556;50.846;4.442;2022-08-02T08:23:35;21.90;67.80
43894;DHT22;29556;50.846;4.442;2022-08-02T08:26:01;21.90;66.60
43894;DHT22;29556;50.846;4.442;2022-08-02T08:28:27;22.00;66.60
43894;DHT22;29556;50.846;4.442;2022-08-02T08:30:52;22.00;66.50
43894;DHT22;29556;50.846;4.442;2022-08-02T08:33:19;22.10;66.90
43894;DHT22;29556;50.846;4.442;2022-08-02T08:35:45;22.00;65.90
43894;DHT22;29556;50.846;4.442;2022-08-02T08:38:10;22.10;66.20
43894;DHT22;29556;50.846;4.442;2022-08-02T08:40:36;22.10;66.40
43894;DHT22;29556;50.846;4.442;2022-08-02T08:43:03;22.20;66.40
43894;DHT22;29556;50.846;4.442;2022-08-02T08:45:29;22.20;66.30
43894;DHT22;29556;50.846;4.442;2022-08-02T08:48:06;22.30;66.10
43894;DHT22;29556;50.846;4.442;2022-08-02T08:50:34;22.30;66.30
43894;DHT22;29556;50.846;4.442;2022-08-02T08:53:07;22.30;65.70
43894;DHT22;29556;50.846;4.442;2022-08-02T08:55:35;22.20;65.10
43894;DHT22;29556;50.846;4.442;2022-08-02T08:58:02;22.30;65.70
43894;DHT22;29556;50.846;4.442;2022-08-02T09:00:30;22.50;65.60
43894;DHT22;29556;50.846;4.442;2022-08-02T09:03:05;22.60;65.30
43894;DHT22;29556;50.846;4.442;2022-08-02T09:05:39;22.60;65.00
43894;DHT22;29556;50.846;4.442;2022-08-02T09:08:06;22.60;64.80
43894;DHT22;29556;50.846;4.442;2022-08-02T09:15:40;22.80;65.70
43894;DHT22;29556;50.846;4.442;2022-08-02T09:18:07;22.80;64.20
43894;DHT22;29556;50.846;4.442;2022-08-02T09:20:34;22.80;63.50
43894;DHT22;29556;50.846;4.442;2022-08-02T09:23:10;22.90;64.20
43894;DHT22;29556;50.846;4.442;2022-08-02T09:25:37;23.00;64.50
43894;DHT22;29556;50.846;4.442;2022-08-02T09:28:06;23.00;63.80
43894;DHT22;29556;50.846;4.442;2022-08-02T09:30:33;23.10;63.90
43894;DHT22;29556;50.846;4.442;2022-08-02T09:33:07;23.20;64.00
43894;DHT22;29556;50.846;4.442;2022-08-02T09:35:38;23.30;63.50
43894;DHT22;29556;50.846;4.442;2022-08-02T09:38:08;23.50;64.00
43894;DHT22;29556;50.846;4.442;2022-08-02T09:40:36;23.50;62.10
43894;DHT22;29556;50.846;4.442;2022-08-02T09:43:02;23.70;62.80
43894;DHT22;29556;50.846;4.442;2022-08-02T09:45:32;23.80;61.50
43894;DHT22;29556;50.846;4.442;2022-08-02T09:48:06;23.70;60.60
43894;DHT22;29556;50.846;4.442;2022-08-02T09:50:33;23.70;60.90
43894;DHT22;29556;50.846;4.442;2022-08-02T09:53:00;23.70;61.30
43894;DHT22;29556;50.846;4.442;2022-08-02T09:55:29;23.70;61.80
43894;DHT22;29556;50.846;4.442;2022-08-02T09:57:55;23.70;61.00
43894;DHT22;29556;50.846;4.442;2022-08-02T10:00:22;23.80;61.90
43894;DHT22;29556;50.846;4.442;2022-08-02T10:03:10;23.90;61.90
43894;DHT22;29556;50.846;4.442;2022-08-02T10:05:51;24.00;61.40
43894;DHT22;29556;50.846;4.442;2022-08-02T10:08:18;24.10;60.80
43894;DHT22;29556;50.846;4.442;2022-08-02T10:10:45;24.00;59.90
43894;DHT22;29556;50.846;4.442;2022-08-02T10:13:14;24.00;59.60
43894;DHT22;29556;50.846;4.442;2022-08-02T10:15:40;24.10;59.70
43894;DHT22;29556;50.846;4.442;2022-08-02T10:18:07;24.10;60.20
43894;DHT22;29556;50.846;4.442;2022-08-02T10:20:43;24.10;59.20
43894;DHT22;29556;50.846;4.442;2022-08-02T10:23:12;24.30;59.70
43894;DHT22;29556;50.846;4.442;2022-08-02T10:25:38;24.40;59.80
43894;DHT22;29556;50.846;4.442;2022-08-02T10:28:07;24.60;59.80
43894;DHT22;29556;50.846;4.442;2022-08-02T10:30:39;24.70;58.80
43894;DHT22;29556;50.846;4.442;2022-08-02T10:33:09;24.90;57.70
43894;DHT22;29556;50.846;4.442;2022-08-02T10:35:38;25.00;57.30
43894;DHT22;29556;50.846;4.442;2022-08-02T10:38:07;25.10;57.30
43894;DHT22;29556;50.846;4.442;2022-08-02T10:40:43;25.30;57.70
43894;DHT22;29556;50.846;4.442;2022-08-02T10:43:09;25.30;56.80
43894;DHT22;29556;50.846;4.442;2022-08-02T10:45:34;25.30;56.60
43894;DHT22;29556;50.846;4.442;2022-08-02T10:48:07;25.40;57.40
43894;DHT22;29556;50.846;4.442;2022-08-02T10:55:46;25.40;54.30
43894;DHT22;29556;50.846;4.442;2022-08-02T10:58:19;25.30;53.80
43894;DHT22;29556;50.846;4.442;2022-08-02T11:00:49;25.40;54.60
43894;DHT22;29556;50.846;4.442;2022-08-02T11:06:16;25.30;53.20
43894;DHT22;29556;50.846;4.442;2022-08-02T11:08:42;25.50;53.50
43894;DHT22;29556;50.846;4.442;2022-08-02T11:19:23;25.40;53.40
43894;DHT22;29556;50.846;4.442;2022-08-02T11:22:07;25.40;51.60
43894;DHT22;29556;50.846;4.442;2022-08-02T11:24:38;25.10;51.10
43894;DHT22;29556;50.846;4.442;2022-08-02T11:27:08;25.30;52.40
43894;DHT22;29556;50.846;4.442;2022-08-02T11:29:43;25.20;52.20
43894;DHT22;29556;50.846;4.442;2022-08-02T11:32:23;25.40;53.00
43894;DHT22;29556;50.846;4.442;2022-08-02T11:34:51;25.40;52.00
43894;DHT22;29556;50.846;4.442;2022-08-02T11:37:30;25.50;51.70
43894;DHT22;29556;50.846;4.442;2022-08-02T11:39:57;25.40;49.40
43894;DHT22;29556;50.846;4.442;2022-08-02T11:42:42;25.40;50.50
43894;DHT22;29556;50.846;4.442;2022-08-02T11:45:12;25.40;51.60
43894;DHT22;29556;50.846;4.442;2022-08-02T11:47:52;25.40;52.10
43894;DHT22;29556;50.846;4.442;2022-08-02T11:50:20;25.50;51.90
43894;DHT22;29556;50.846;4.442;2022-08-02T11:52:50;25.20;48.80
43894;DHT22;29556;50.846;4.442;2022-08-02T11:55:29;25.20;49.20
43894;DHT22;29556;50.846;4.442;2022-08-02T11:57:59;25.30;50.40
43894;DHT22;29556;50.846;4.442;2022-08-02T12:00:24;25.40;50.40
43894;DHT22;29556;50.846;4.442;2022-08-02T12:02:51;25.50;50.50
43894;DHT22;29556;50.846;4.442;2022-08-02T12:05:19;25.50;51.00
43894;DHT22;29556;50.846;4.442;2022-08-02T12:07:45;25.60;51.50
43894;DHT22;29556;50.846;4.442;2022-08-02T12:10:17;25.70;49.30
43894;DHT22;29556;50.846;4.442;2022-08-02T12:12:51;25.80;50.40
43894;DHT22;29556;50.846;4.442;2022-08-02T12:15:38;25.80;50.20
43894;DHT22;29556;50.846;4.442;2022-08-02T12:18:17;25.80;49.40
43894;DHT22;29556;50.846;4.442;2022-08-02T12:21:02;25.80;47.80
43894;DHT22;29556;50.846;4.442;2022-08-02T12:23:31;25.80;48.20
43894;DHT22;29556;50.846;4.442;2022-08-02T12:26:08;25.80;48.80
43894;DHT22;29556;50.846;4.442;2022-08-02T12:28:38;26.00;50.40
43894;DHT22;29556;50.846;4.442;2022-08-02T12:31:06;26.20;50.30
43894;DHT22;29556;50.846;4.442;2022-08-02T12:33:46;26.20;50.60
43894;DHT22;29556;50.846;4.442;2022-08-02T12:36:20;26.20;49.80
43894;DHT22;29556;50.846;4.442;2022-08-02T12:38:51;26.20;49.50
43894;DHT22;29556;50.846;4.442;2022-08-02T12:41:17;26.20;50.10
43894;DHT22;29556;50.846;4.442;2022-08-02T12:43:43;26.20;49.40
43894;DHT22;29556;50.846;4.442;2022-08-02T12:46:17;26.40;50.40
43894;DHT22;29556;50.846;4.442;2022-08-02T12:48:44;26.30;50.30
43894;DHT22;29556;50.846;4.442;2022-08-02T12:51:26;26.10;50.10
43894;DHT22;29556;50.846;4.442;2022-08-02T12:54:13;26.30;50.00
43894;DHT22;29556;50.846;4.442;2022-08-02T12:56:39;26.20;49.40
43894;DHT22;29556;50.846;4.442;2022-08-02T12:59:05;26.20;49.90
43894;DHT22;29556;50.846;4.442;2022-08-02T13:01:31;26.10;50.00
43894;DHT22;29556;50.846;4.442;2022-08-02T13:03:57;26.10;50.50
43894;DHT22;29556;50.846;4.442;2022-08-02T13:06:24;26.40;50.00
43894;DHT22;29556;50.846;4.442;2022-08-02T13:08:52;26.20;49.30
43894;DHT22;29556;50.846;4.442;2022-08-02T13:11:19;26.40;51.00
43894;DHT22;29556;50.846;4.442;2022-08-02T13:13:46;26.50;50.70
43894;DHT22;29556;50.846;4.442;2022-08-02T13:16:12;26.50;51.00
43894;DHT22;29556;50.846;4.442;2022-08-02T13:18:41;26.50;49.40
43894;DHT22;29556;50.846;4.442;2022-08-02T13:21:07;26.40;50.10
43894;DHT22;29556;50.846;4.442;2022-08-02T13:23:35;26.30;50.80
43894;DHT22;29556;50.846;4.442;2022-08-02T13:26:03;26.50;51.10
43894;DHT22;29556;50.846;4.442;2022-08-02T13:28:28;26.70;51.00
43894;DHT22;29556;50.846;4.442;2022-08-02T13:30:54;26.70;50.90
43894;DHT22;29556;50.846;4.442;2022-08-02T13:33:19;26.70;50.60
43894;DHT22;29556;50.846;4.442;2022-08-02T13:35:46;26.70;50.90
43894;DHT22;29556;50.846;4.442;2022-08-02T13:38:12;26.80;51.10
43894;DHT22;29556;50.846;4.442;2022-08-02T13:40:37;26.80;51.30
43894;DHT22;29556;50.846;4.442;2022-08-02T13:43:25;26.90;51.40
43894;DHT22;29556;50.846;4.442;2022-08-02T13:45:50;26.90;51.10
43894;DHT22;29556;50.846;4.442;2022-08-02T13:48:16;27.00;51.20
43894;DHT22;29556;50.846;4.442;2022-08-02T13:50:42;27.10;51.00
43894;DHT22;29556;50.846;4.442;2022-08-02T13:53:07;27.10;50.90
43894;DHT22;29556;50.846;4.442;2022-08-02T13:55:34;27.20;51.30
43894;DHT22;29556;50.846;4.442;2022-08-02T13:58:02;27.30;50.90
43894;DHT22;29556;50.846;4.442;2022-08-02T14:00:29;27.30;51.10
43894;DHT22;29556;50.846;4.442;2022-08-02T14:02:57;27.30;51.10
43894;DHT22;29556;50.846;4.442;2022-08-02T14:05:25;27.20;50.00
43894;DHT22;29556;50.846;4.442;2022-08-02T14:07:58;27.10;50.80
43894;DHT22;29556;50.846;4.442;2022-08-02T14:10:24;27.10;51.00
43894;DHT22;29556;50.846;4.442;2022-08-02T14:12:58;27.30;51.20
43894;DHT22;29556;50.846;4.442;2022-08-02T14:15:23;27.30;50.40
43894;DHT22;29556;50.846;4.442;2022-08-02T14:17:54;27.30;50.50
43894;DHT22;29556;50.846;4.442;2022-08-02T14:20:20;27.30;50.80
43894;DHT22;29556;50.846;4.442;2022-08-02T14:22:46;27.40;50.70
43894;DHT22;29556;50.846;4.442;2022-08-02T14:25:12;27.50;51.00
43894;DHT22;29556;50.846;4.442;2022-08-02T14:27:37;27.50;50.10
43894;DHT22;29556;50.846;4.442;2022-08-02T14:30:03;27.50;50.30
43894;DHT22;29556;50.846;4.442;2022-08-02T14:32:29;27.60;50.60
43894;DHT22;29556;50.846;4.442;2022-08-02T14:34:55;27.60;50.40
43894;DHT22;29556;50.846;4.442;2022-08-02T14:37:21;27.60;50.70
43894;DHT22;29556;50.846;4.442;2022-08-02T14:39:46;27.60;50.20
43894;DHT22;29556;50.846;4.442;2022-08-02T14:42:12;27.60;50.50
43894;DHT22;29556;50.846;4.442;2022-08-02T14:44:39;27.70;50.70
43894;DHT22;29556;50.846;4.442;2022-08-02T14:47:05;27.50;50.00
43894;DHT22;29556;50.846;4.442;2022-08-02T14:49:31;27.60;50.80
43894;DHT22;29556;50.846;4.442;2022-08-02T14:51:58;27.80;51.00
43894;DHT22;29556;50.846;4.442;2022-08-02T14:54:25;28.00;50.80
43894;DHT22;29556;50.846;4.442;2022-08-02T14:56:55;28.00;50.70
43894;DHT22;29556;50.846;4.442;2022-08-02T14:59:20;27.90;50.80
43894;DHT22;29556;50.846;4.442;2022-08-02T15:01:46;27.90;50.90
43894;DHT22;29556;50.846;4.442;2022-08-02T15:04:11;27.90;51.10
43894;DHT22;29556;50.846;4.442;2022-08-02T15:06:38;27.80;50.00
43894;DHT22;29556;50.846;4.442;2022-08-02T15:09:03;27.80;50.90
43894;DHT22;29556;50.846;4.442;2022-08-02T15:11:29;28.00;50.90
43894;DHT22;29556;50.846;4.442;2022-08-02T15:13:55;27.80;50.40
43894;DHT22;29556;50.846;4.442;2022-08-02T15:16:23;27.80;50.70
43894;DHT22;29556;50.846;4.442;2022-08-02T15:18:49;27.90;50.60
43894;DHT22;29556;50.846;4.442;2022-08-02T15:21:17;28.00;51.00
43894;DHT22;29556;50.846;4.442;2022-08-02T15:23:43;27.90;50.40
43894;DHT22;29556;50.846;4.442;2022-08-02T15:26:09;27.70;49.90
43894;DHT22;29556;50.846;4.442;2022-08-02T15:28:35;27.80;50.60
43894;DHT22;29556;50.846;4.442;2022-08-02T15:31:03;28.00;50.60
43894;DHT22;29556;50.846;4.442;2022-08-02T15:33:28;28.00;49.90
43894;DHT22;29556;50.846;4.442;2022-08-02T15:35:55;27.90;50.20
43894;DHT22;29556;50.846;4.442;2022-08-02T15:38:24;28.00;50.30
43894;DHT22;29556;50.846;4.442;2022-08-02T15:40:50;28.00;50.40
43894;DHT22;29556;50.846;4.442;2022-08-02T15:43:15;27.90;50.70
43894;DHT22;29556;50.846;4.442;2022-08-02T15:45:41;28.00;50.80
43894;DHT22;29556;50.846;4.442;2022-08-02T15:48:06;28.10;50.70
43894;DHT22;29556;50.846;4.442;2022-08-02T15:50:33;28.20;49.70
43894;DHT22;29556;50.846;4.442;2022-08-02T15:52:58;28.00;49.70
43894;DHT22;29556;50.846;4.442;2022-08-02T15:55:25;28.10;50.20
43894;DHT22;29556;50.846;4.442;2022-08-02T15:57:53;28.20;50.30
43894;DHT22;29556;50.846;4.442;2022-08-02T16:00:19;28.30;50.20
43894;DHT22;29556;50.846;4.442;2022-08-02T16:02:46;28.20;49.90
43894;DHT22;29556;50.846;4.442;2022-08-02T16:05:12;28.30;49.80
43894;DHT22;29556;50.846;4.442;2022-08-02T16:07:38;28.30;50.20
43894;DHT22;29556;50.846;4.442;2022-08-02T16:10:05;28.30;50.20